createdAt,value
2023-05-13T00:02:02.097Z,8.43
2023-05-13T00:04:29.815Z,7.95
2023-05-13T00:06:58.157Z,8.20
2023-05-13T00:09:25.791Z,8.18
2023-05-13T00:11:54.888Z,8.20
2023-05-13T00:14:24.261Z,8.00
2023-05-13T00:16:52.136Z,8.48
2023-05-13T00:19:19.822Z,7.85
2023-05-13T00:21:47.468Z,7.60
2023-05-13T00:24:15.035Z,7.60
2023-05-13T00:26:43.601Z,7.70
2023-05-13T00:29:12.501Z,8.07
2023-05-13T00:31:40.179Z,7.88
2023-05-13T00:34:07.812Z,7.05
2023-05-13T00:36:35.389Z,7.63
2023-05-13T00:39:03.669Z,7.00
2023-05-13T00:41:31.312Z,7.88
2023-05-13T00:43:59.108Z,7.47
2023-05-13T00:46:32.577Z,7.43
2023-05-13T00:49:01.963Z,8.73
2023-05-13T00:51:29.629Z,8.75
2023-05-13T00:53:59.503Z,8.02
2023-05-13T00:56:28.043Z,9.07
2023-05-13T00:58:55.569Z,8.82
2023-05-13T01:01:39.479Z,7.57
2023-05-13T01:04:15.657Z,8.82
2023-05-13T01:06:53.235Z,7.57
2023-05-13T01:09:29.858Z,7.00
2023-05-13T01:12:03.231Z,6.90
2023-05-13T01:14:38.151Z,6.95
2023-05-13T01:22:03.143Z,6.78
2023-05-13T01:24:56.485Z,6.22
2023-05-13T01:27:24.416Z,6.43
2023-05-13T01:30:17.792Z,6.60
2023-05-13T01:32:48.025Z,6.45
2023-05-13T01:35:18.096Z,6.43
2023-05-13T01:37:51.184Z,5.60
2023-05-13T01:40:44.166Z,6.50
2023-05-13T01:43:13.172Z,6.07
2023-05-13T01:45:40.963Z,6.47
2023-05-13T01:48:09.163Z,6.70
2023-05-13T01:50:46.183Z,6.70
2023-05-13T01:53:15.312Z,6.85
2023-05-13T01:55:43.599Z,6.60
2023-05-13T01:58:11.625Z,6.43
2023-05-13T02:00:40.352Z,6.28
2023-05-13T02:03:08.797Z,6.32
2023-05-13T02:05:37.200Z,6.47
2023-05-13T02:08:08.932Z,6.50
2023-05-13T02:10:40.765Z,6.30
2023-05-13T02:13:08.717Z,6.72
2023-05-13T02:15:37.194Z,6.50
2023-05-13T02:18:06.672Z,6.35
2023-05-13T02:20:34.359Z,6.57
2023-05-13T02:23:01.956Z,6.75
2023-05-13T02:25:31.175Z,6.95
2023-05-13T02:28:01.548Z,6.55
2023-05-13T02:30:30.745Z,6.38
2023-05-13T02:33:01.268Z,6.88
2023-05-13T02:35:30.005Z,6.80
2023-05-13T02:37:59.711Z,6.80
2023-05-13T02:40:29.595Z,6.95
2023-05-13T02:42:59.342Z,7.10
2023-05-13T02:45:45.421Z,6.82
2023-05-13T02:48:13.766Z,7.10
2023-05-13T02:50:44.169Z,7.10
2023-05-13T02:53:13.282Z,7.07
2023-05-13T02:55:47.183Z,6.57
2023-05-13T02:58:15.306Z,7.07
2023-05-13T03:00:47.193Z,6.72
2023-05-13T03:03:18.355Z,6.72
2023-05-13T03:05:46.246Z,6.75
2023-05-13T03:08:13.857Z,6.70
2023-05-13T03:10:41.514Z,6.57
2023-05-13T03:13:09.697Z,6.63
2023-05-13T03:15:37.632Z,7.20
2023-05-13T03:18:06.338Z,7.05
2023-05-13T03:20:35.273Z,6.60
2023-05-13T03:23:04.648Z,7.05
2023-05-13T03:25:33.693Z,6.97
2023-05-13T03:28:01.578Z,6.93
2023-05-13T03:30:57.040Z,7.57
2023-05-13T03:35:55.917Z,6.70
2023-05-13T03:38:29.276Z,7.00
2023-05-13T03:40:57.155Z,7.18
2023-05-13T03:43:25.444Z,6.90
2023-05-13T03:45:58.279Z,6.82
2023-05-13T03:48:26.802Z,6.82
2023-05-13T03:50:58.450Z,6.82
2023-05-13T03:53:27.173Z,7.00
2023-05-13T03:55:56.646Z,7.68
2023-05-13T03:58:24.316Z,7.80
2023-05-13T04:00:52.597Z,7.00
2023-05-13T04:03:20.511Z,6.93
2023-05-13T04:05:49.800Z,7.20
2023-05-13T04:08:24.186Z,7.25
2023-05-13T04:10:51.776Z,6.97
2023-05-13T04:13:20.196Z,7.90
2023-05-13T04:15:49.257Z,7.88
2023-05-13T04:18:18.562Z,7.20
2023-05-13T04:20:47.275Z,8.52
2023-05-13T04:23:15.354Z,7.88
2023-05-13T04:25:51.547Z,8.70
2023-05-13T04:28:20.188Z,8.18
2023-05-13T04:30:49.510Z,7.80
2023-05-13T04:33:17.353Z,7.55
2023-05-13T04:35:48.258Z,8.00
2023-05-13T04:38:19.278Z,7.65
2023-05-13T04:40:48.732Z,7.80
2023-05-13T04:43:22.546Z,7.60
2023-05-13T04:45:58.184Z,8.30
2023-05-13T04:48:28.117Z,7.82
2023-05-13T04:50:59.187Z,7.65
2023-05-13T04:53:28.308Z,7.78
2023-05-13T04:56:01.181Z,7.57
2023-05-13T04:58:30.503Z,7.68
2023-05-13T05:00:58.309Z,8.48
2023-05-13T05:03:30.253Z,8.45
2023-05-13T05:05:59.124Z,8.20
2023-05-13T05:08:29.188Z,8.25
2023-05-13T05:13:27.532Z,8.43
2023-05-13T05:15:55.171Z,8.68
2023-05-13T05:18:22.933Z,8.55
2023-05-13T05:20:52.099Z,8.70
2023-05-13T05:23:22.571Z,8.45
2023-05-13T05:25:58.085Z,9.02
2023-05-13T05:28:40.032Z,8.30
2023-05-13T05:31:08.402Z,8.35
2023-05-13T05:33:38.174Z,8.77
2023-05-13T05:36:32.212Z,8.95
2023-05-13T05:39:05.294Z,9.02
2023-05-13T05:41:36.478Z,8.82
2023-05-13T05:44:06.118Z,8.32
2023-05-13T05:46:36.008Z,7.97
2023-05-13T05:49:04.103Z,8.65
2023-05-13T05:51:35.402Z,8.70
2023-05-13T05:54:04.617Z,8.60
2023-05-13T05:56:32.440Z,8.07
2023-05-13T05:59:01.189Z,8.35
2023-05-13T06:01:33.647Z,7.95
2023-05-13T06:04:02.254Z,8.27
2023-05-13T06:06:32.243Z,7.85
2023-05-13T06:09:01.736Z,7.38
2023-05-13T06:11:30.308Z,7.82
2023-05-13T06:14:00.200Z,8.43
2023-05-13T06:16:33.443Z,7.82
2023-05-13T06:19:01.342Z,7.60
2023-05-13T06:21:29.119Z,7.13
2023-05-13T06:24:21.015Z,7.07
2023-05-13T06:26:48.699Z,6.80
2023-05-13T06:29:16.908Z,6.80
2023-05-13T06:31:45.925Z,6.65
2023-05-13T06:34:17.234Z,6.47
2023-05-13T06:36:45.828Z,6.10
2023-05-13T06:39:14.653Z,6.35
2023-05-13T06:41:46.208Z,6.40
2023-05-13T06:44:16.571Z,5.90
2023-05-13T06:46:52.367Z,5.88
2023-05-13T06:49:25.080Z,5.53
2023-05-13T06:51:54.580Z,5.38
2023-05-13T06:54:22.171Z,5.80
2023-05-13T06:56:52.211Z,5.03
2023-05-13T06:59:22.343Z,4.97
2023-05-13T07:01:51.394Z,4.80
2023-05-13T07:04:19.124Z,4.80
2023-05-13T07:06:49.377Z,4.43
2023-05-13T07:09:18.104Z,5.27
2023-05-13T07:11:46.190Z,5.20
2023-05-13T07:14:13.870Z,5.20
2023-05-13T07:16:42.191Z,5.45
2023-05-13T07:19:11.226Z,4.55
2023-05-13T07:21:40.185Z,4.70
2023-05-13T07:24:09.411Z,4.90
2023-05-13T07:26:37.105Z,4.50
2023-05-13T07:29:06.083Z,4.70
2023-05-13T07:31:36.183Z,3.85
2023-05-13T07:34:03.812Z,4.22
2023-05-13T07:36:32.717Z,4.10
2023-05-13T07:39:02.158Z,4.45
2023-05-13T07:44:22.774Z,4.22
2023-05-13T07:46:53.290Z,4.45
2023-05-13T07:49:21.344Z,4.38
2023-05-13T07:51:52.680Z,4.30
2023-05-13T07:54:20.781Z,3.88
2023-05-13T07:56:50.184Z,4.00
2023-05-13T07:59:18.204Z,3.95
2023-05-13T08:01:46.377Z,4.28
2023-05-13T08:04:14.100Z,4.20
2023-05-13T08:06:42.212Z,3.83
2023-05-13T08:09:12.203Z,4.63
2023-05-13T08:11:41.756Z,3.95
2023-05-13T08:14:09.399Z,4.05
2023-05-13T08:16:38.828Z,3.97
2023-05-13T08:19:07.293Z,3.50
2023-05-13T08:21:35.607Z,3.63
2023-05-13T08:24:03.861Z,3.78
2023-05-13T08:26:34.216Z,3.78
2023-05-13T08:29:02.690Z,3.72
2023-05-13T08:31:31.958Z,4.22
2023-05-13T08:34:00.317Z,3.78
2023-05-13T08:36:29.585Z,3.53
2023-05-13T08:39:02.210Z,3.60
2023-05-13T08:41:31.614Z,3.30
2023-05-13T08:44:01.595Z,3.35
2023-05-13T08:46:33.413Z,3.47
2023-05-13T08:49:03.694Z,3.70
2023-05-13T08:51:56.201Z,3.47
2023-05-13T08:54:26.857Z,3.67
2023-05-13T08:56:54.544Z,3.58
2023-05-13T08:59:24.053Z,3.30
2023-05-13T09:01:53.632Z,4.78
2023-05-13T09:04:22.307Z,3.63
2023-05-13T09:06:50.621Z,3.80
2023-05-13T09:09:19.061Z,3.53
2023-05-13T09:11:49.202Z,4.53
2023-05-13T09:14:20.063Z,3.63
2023-05-13T09:16:51.084Z,3.53
2023-05-13T09:19:19.824Z,3.50
2023-05-13T09:21:47.533Z,3.10
2023-05-13T09:24:20.218Z,3.17
2023-05-13T09:26:48.771Z,3.28
2023-05-13T09:29:24.282Z,3.20
2023-05-13T09:31:54.698Z,3.10
2023-05-13T09:34:30.680Z,3.25
2023-05-13T09:37:04.339Z,3.33
2023-05-13T09:39:58.363Z,2.90
2023-05-13T09:42:26.011Z,3.05
2023-05-13T09:44:53.642Z,3.33
2023-05-13T09:47:25.631Z,2.83
2023-05-13T09:49:56.675Z,2.80
2023-05-13T09:52:25.350Z,3.00
2023-05-13T09:54:53.186Z,3.63
2023-05-13T09:57:21.820Z,3.08
2023-05-13T09:59:49.450Z,2.88
2023-05-13T10:05:15.275Z,3.25
2023-05-13T10:07:43.065Z,2.97
2023-05-13T10:10:12.238Z,3.10
2023-05-13T10:12:41.494Z,3.47
2023-05-13T10:15:10.758Z,3.20
2023-05-13T10:17:39.288Z,3.13
2023-05-13T10:20:34.223Z,3.00
2023-05-13T10:23:04.101Z,2.92
2023-05-13T10:25:32.490Z,3.25
2023-05-13T10:28:03.897Z,3.20
2023-05-13T10:30:32.568Z,3.13
2023-05-13T10:33:01.400Z,3.25
2023-05-13T10:35:37.529Z,2.92
2023-05-13T10:38:11.333Z,3.25
2023-05-13T10:40:54.282Z,3.20
2023-05-13T10:43:25.635Z,2.92
2023-05-13T10:45:58.240Z,3.40
2023-05-13T10:48:31.299Z,3.17
2023-05-13T10:51:06.572Z,3.10
2023-05-13T10:53:47.242Z,3.00
2023-05-13T10:56:15.978Z,2.88
2023-05-13T10:58:44.229Z,3.20
2023-05-13T11:01:18.339Z,3.20
2023-05-13T11:03:56.395Z,3.30
2023-05-13T11:06:26.947Z,3.30
2023-05-13T11:08:56.522Z,3.30
2023-05-13T11:11:27.430Z,3.40
2023-05-13T11:13:56.711Z,3.15
2023-05-13T11:16:24.990Z,3.30
2023-05-13T11:18:53.468Z,3.35
2023-05-13T11:21:31.339Z,3.10
2023-05-13T11:24:03.895Z,3.10
2023-05-13T11:26:48.434Z,3.00
2023-05-13T11:29:16.718Z,3.10
2023-05-13T11:31:47.159Z,3.20
2023-05-13T11:34:17.369Z,3.42
2023-05-13T11:36:47.368Z,3.63
2023-05-13T11:39:18.162Z,3.42
2023-05-13T11:41:47.471Z,3.20
2023-05-13T11:44:17.318Z,3.42
2023-05-13T11:46:56.700Z,3.47
2023-05-13T11:49:40.381Z,3.60
2023-05-13T11:52:12.840Z,3.50
2023-05-13T11:54:49.538Z,3.10
2023-05-13T11:57:23.403Z,3.47
2023-05-13T11:59:57.462Z,3.42
2023-05-13T12:02:28.410Z,3.20
2023-05-13T12:04:56.609Z,3.03
2023-05-13T12:07:25.750Z,2.97
2023-05-13T12:09:58.513Z,3.47
2023-05-13T12:12:27.750Z,3.40
2023-05-13T12:14:56.656Z,3.20
2023-05-13T12:17:25.453Z,3.20
2023-05-13T12:20:16.268Z,3.08
2023-05-13T12:22:56.663Z,3.40
2023-05-13T12:25:43.590Z,3.22
2023-05-13T12:28:13.604Z,3.40
2023-05-13T12:30:43.071Z,3.10
2023-05-13T12:33:15.117Z,3.00
2023-05-13T12:35:43.309Z,3.00
2023-05-13T12:38:16.164Z,3.15
2023-05-13T12:40:46.295Z,3.30
2023-05-13T12:43:15.540Z,3.00
2023-05-13T12:45:46.427Z,2.97
2023-05-13T12:48:16.335Z,3.10
2023-05-13T12:50:43.871Z,2.60
2023-05-13T12:53:11.759Z,2.63
2023-05-13T12:56:04.253Z,3.10
2023-05-13T12:58:33.599Z,3.15
2023-05-13T13:01:05.155Z,2.70
2023-05-13T13:03:34.313Z,2.85
2023-05-13T13:06:02.027Z,2.70
2023-05-13T13:08:30.719Z,3.03
2023-05-13T13:11:00.317Z,2.97
2023-05-13T13:13:28.276Z,2.97
2023-05-13T13:15:57.382Z,2.70
2023-05-13T13:18:25.882Z,2.80
2023-05-13T13:20:54.346Z,3.20
2023-05-13T13:23:22.326Z,2.70
2023-05-13T13:25:49.911Z,3.03
2023-05-13T13:28:17.662Z,3.20
2023-05-13T13:31:09.824Z,2.70
2023-05-13T13:36:57.273Z,2.70
2023-05-13T13:39:24.859Z,2.90
2023-05-13T13:41:52.803Z,3.00
2023-05-13T13:44:20.535Z,3.08
2023-05-13T13:46:52.227Z,2.90
2023-05-13T13:49:24.119Z,2.55
2023-05-13T13:51:52.396Z,2.70
2023-05-13T13:54:20.349Z,2.83
2023-05-13T13:56:49.364Z,2.92
2023-05-13T13:59:19.089Z,2.65
2023-05-13T14:02:12.327Z,3.15
2023-05-13T14:04:43.373Z,3.00
2023-05-13T14:07:11.200Z,2.90
2023-05-13T14:09:39.268Z,3.10
2023-05-13T14:12:07.090Z,2.83
2023-05-13T14:14:34.664Z,2.85
2023-05-13T14:17:02.361Z,2.85
2023-05-13T14:19:29.970Z,2.95
2023-05-13T14:21:59.358Z,3.00
2023-05-13T14:24:31.055Z,2.70
2023-05-13T14:26:59.167Z,3.20
2023-05-13T14:29:27.366Z,3.50
2023-05-13T14:31:56.469Z,3.13
2023-05-13T14:34:24.346Z,3.10
2023-05-13T14:36:52.101Z,2.50
2023-05-13T14:39:21.838Z,2.72
2023-05-13T14:41:49.436Z,2.65
2023-05-13T14:44:17.376Z,2.80
2023-05-13T14:46:45.057Z,2.53
2023-05-13T14:49:12.795Z,2.80
2023-05-13T14:51:40.358Z,2.85
2023-05-13T14:54:08.015Z,2.80
2023-05-13T14:56:37.798Z,2.83
2023-05-13T14:59:09.261Z,2.60
2023-05-13T15:01:37.678Z,3.05
2023-05-13T15:04:07.710Z,3.00
2023-05-13T15:06:36.232Z,3.15
2023-05-13T15:09:03.894Z,3.00
2023-05-13T15:11:31.469Z,3.00
2023-05-13T15:14:01.340Z,3.00
2023-05-13T15:16:29.068Z,2.72
2023-05-13T15:18:57.399Z,2.78
2023-05-13T15:21:25.865Z,2.90
2023-05-13T15:23:53.706Z,3.00
2023-05-13T15:26:23.251Z,2.95
2023-05-13T15:28:51.781Z,2.97
2023-05-13T15:31:20.821Z,2.90
2023-05-13T15:33:48.455Z,3.05
2023-05-13T15:36:17.653Z,2.90
2023-05-13T15:38:45.395Z,3.03
2023-05-13T15:41:12.968Z,3.13
2023-05-13T15:46:34.678Z,2.95
2023-05-13T15:49:02.581Z,3.05
2023-05-13T15:51:30.316Z,3.00
2023-05-13T15:53:57.923Z,3.08
2023-05-13T15:56:27.293Z,3.00
2023-05-13T15:58:56.390Z,3.30
2023-05-13T16:01:26.344Z,2.88
2023-05-13T16:03:56.417Z,3.40
2023-05-13T16:06:24.269Z,3.20
2023-05-13T16:08:55.626Z,3.10
2023-05-13T16:11:24.884Z,3.28
2023-05-13T16:13:52.902Z,3.50
2023-05-13T16:16:21.084Z,3.05
2023-05-13T16:18:49.307Z,3.17
2023-05-13T16:21:19.613Z,3.13
2023-05-13T16:23:47.179Z,3.08
2023-05-13T16:26:15.310Z,3.15
2023-05-13T16:28:45.389Z,3.45
2023-05-13T16:31:13.130Z,3.17
2023-05-13T16:33:40.834Z,3.13
2023-05-13T16:36:10.913Z,3.40
2023-05-13T16:38:41.284Z,3.30
2023-05-13T16:41:08.896Z,3.00
2023-05-13T16:43:36.595Z,3.13
2023-05-13T16:46:05.045Z,3.47
2023-05-13T16:48:32.698Z,3.28
2023-05-13T16:51:00.261Z,3.95
2023-05-13T16:53:27.936Z,3.42
2023-05-13T16:55:57.011Z,3.38
2023-05-13T16:58:24.884Z,3.45
2023-05-13T17:00:52.969Z,3.50
2023-05-13T17:03:20.733Z,3.42
2023-05-13T17:05:48.811Z,3.40
2023-05-13T17:08:19.166Z,3.30
2023-05-13T17:10:46.809Z,3.53
2023-05-13T17:13:15.854Z,3.47
2023-05-13T17:15:43.517Z,3.78
2023-05-13T17:18:11.446Z,3.30
2023-05-13T17:20:39.555Z,3.75
2023-05-13T17:23:07.573Z,3.50
2023-05-13T17:25:35.420Z,3.42
2023-05-13T17:28:03.144Z,3.65
2023-05-13T17:30:32.268Z,3.55
2023-05-13T17:32:59.927Z,3.58
2023-05-13T17:35:27.831Z,3.30
2023-05-13T17:37:55.384Z,3.45
2023-05-13T17:40:23.556Z,3.40
2023-05-13T17:42:52.830Z,3.10
2023-05-13T17:45:21.014Z,3.30
2023-05-13T17:47:50.256Z,4.38
2023-05-13T17:50:18.247Z,3.92
2023-05-13T17:52:45.984Z,3.88
2023-05-13T17:55:13.559Z,5.35
2023-05-13T17:57:42.422Z,4.75
2023-05-13T18:00:10.951Z,3.40
2023-05-13T18:02:39.930Z,3.35
2023-05-13T18:05:10.127Z,3.40
2023-05-13T18:07:37.924Z,3.17
2023-05-13T18:10:06.841Z,3.10
2023-05-13T18:12:34.503Z,3.25
2023-05-13T18:15:03.547Z,3.03
2023-05-13T18:17:31.080Z,3.60
2023-05-13T18:20:00.351Z,3.20
2023-05-13T18:22:29.433Z,3.22
2023-05-13T18:24:57.078Z,3.17
2023-05-13T18:27:25.533Z,3.58
2023-05-13T18:29:53.308Z,3.20
2023-05-13T18:32:20.932Z,3.45
2023-05-13T18:34:48.674Z,3.63
2023-05-13T18:37:16.794Z,3.40
2023-05-13T18:39:46.091Z,3.95
2023-05-13T18:42:13.716Z,3.45
2023-05-13T18:44:41.351Z,3.45
2023-05-13T18:47:08.988Z,3.58
2023-05-13T18:49:36.775Z,3.38
2023-05-13T18:52:04.827Z,3.53
2023-05-13T18:54:32.630Z,3.40
2023-05-13T18:57:03.160Z,3.50
2023-05-13T18:59:30.913Z,3.38
2023-05-13T19:01:58.972Z,3.10
2023-05-13T19:04:26.949Z,3.00
2023-05-13T19:06:54.766Z,3.20
2023-05-13T19:09:22.591Z,3.17
2023-05-13T19:11:50.303Z,2.90
2023-05-13T19:14:19.227Z,3.30
2023-05-13T19:16:48.342Z,2.90
2023-05-13T19:19:17.474Z,3.00
2023-05-13T19:21:45.203Z,3.35
2023-05-13T19:24:12.818Z,3.17
2023-05-13T19:26:40.692Z,3.30
2023-05-13T19:29:08.459Z,3.00
2023-05-13T19:31:37.456Z,3.35
2023-05-13T19:34:05.236Z,3.33
2023-05-13T19:36:35.299Z,3.35
2023-05-13T19:39:03.424Z,3.10
2023-05-13T19:41:30.998Z,3.10
2023-05-13T19:43:58.640Z,3.25
2023-05-13T19:46:27.463Z,3.25
2023-05-13T19:48:56.555Z,3.72
2023-05-13T19:51:24.426Z,3.22
2023-05-13T19:53:52.309Z,3.65
2023-05-13T19:56:19.965Z,3.20
2023-05-13T19:58:47.509Z,3.67
2023-05-13T20:01:15.750Z,3.40
2023-05-13T20:03:43.518Z,3.22
2023-05-13T20:06:13.320Z,3.40
2023-05-13T20:08:41.204Z,3.63
2023-05-13T20:11:08.976Z,3.33
2023-05-13T20:13:36.649Z,3.15
2023-05-13T20:16:04.810Z,3.40
2023-05-13T20:18:32.510Z,3.40
2023-05-13T20:21:00.421Z,3.33
2023-05-13T20:23:29.393Z,3.67
2023-05-13T20:25:58.152Z,4.75
2023-05-13T20:28:25.797Z,4.38
2023-05-13T20:30:53.779Z,4.65
2023-05-13T20:33:21.860Z,4.68
2023-05-13T20:35:49.418Z,4.05
2023-05-13T20:38:17.913Z,4.20
2023-05-13T20:40:47.376Z,4.35
2023-05-13T20:43:16.627Z,4.35
2023-05-13T20:45:44.402Z,4.18
2023-05-13T20:48:13.438Z,4.68
2023-05-13T20:50:41.833Z,5.28
2023-05-13T20:53:11.342Z,4.85
2023-05-13T20:55:39.127Z,4.95
2023-05-13T20:58:08.171Z,4.53
2023-05-13T21:00:35.783Z,4.45
2023-05-13T21:03:03.939Z,4.40
2023-05-13T21:05:31.636Z,4.90
2023-05-13T21:07:59.397Z,5.40
2023-05-13T21:10:27.001Z,5.32
2023-05-13T21:12:55.325Z,4.97
2023-05-13T21:15:25.183Z,5.10
2023-05-13T21:17:53.138Z,5.35
2023-05-13T21:20:22.234Z,4.88
2023-05-13T21:22:49.981Z,5.63
2023-05-13T21:25:21.319Z,5.68
2023-05-13T21:27:49.433Z,5.40
2023-05-13T21:30:17.996Z,5.25
2023-05-13T21:32:46.948Z,5.55
2023-05-13T21:35:14.729Z,6.18
2023-05-13T21:37:42.364Z,6.18
2023-05-13T21:40:12.498Z,6.18
2023-05-13T21:42:40.082Z,6.10
2023-05-13T21:45:10.558Z,6.20
2023-05-13T21:47:38.468Z,5.88
2023-05-13T21:50:11.437Z,6.68
2023-05-13T21:52:39.612Z,6.55
2023-05-13T21:55:08.257Z,5.90
2023-05-13T21:57:35.964Z,5.75
2023-05-13T22:00:04.620Z,6.70
2023-05-13T22:02:32.494Z,6.65
2023-05-13T22:05:00.062Z,6.70
2023-05-13T22:07:29.088Z,7.35
2023-05-13T22:09:57.447Z,7.35
2023-05-13T22:12:28.510Z,6.80
2023-05-13T22:14:57.312Z,7.13
2023-05-13T22:17:25.317Z,7.30
2023-05-13T22:19:53.774Z,7.22
2023-05-13T22:22:21.351Z,7.32
2023-05-13T22:24:50.438Z,6.70
2023-05-13T22:27:18.751Z,6.97
2023-05-13T22:29:46.357Z,7.18
2023-05-13T22:32:14.022Z,7.28
2023-05-13T22:34:41.992Z,7.03
2023-05-13T22:37:10.553Z,6.90
2023-05-13T22:39:38.343Z,7.25
2023-05-13T22:42:07.973Z,7.80
2023-05-13T22:44:36.799Z,7.32
2023-05-13T22:47:06.252Z,7.13
2023-05-13T22:49:33.820Z,7.50
2023-05-13T22:52:01.900Z,7.63
2023-05-13T22:54:30.970Z,7.28
2023-05-13T22:56:59.149Z,7.25
2023-05-13T22:59:28.421Z,7.22
2023-05-13T23:01:58.311Z,7.15
2023-05-13T23:04:26.373Z,7.20
2023-05-13T23:06:54.433Z,6.93
2023-05-13T23:09:21.972Z,6.80
2023-05-13T23:11:49.801Z,6.82
2023-05-13T23:14:17.357Z,6.85
2023-05-13T23:16:46.469Z,7.40
2023-05-13T23:19:14.115Z,6.85
2023-05-13T23:21:42.317Z,6.80
2023-05-13T23:24:09.908Z,7.15
2023-05-13T23:26:37.527Z,7.38
2023-05-13T23:29:05.442Z,7.20
2023-05-13T23:31:33.587Z,7.28
2023-05-13T23:34:02.660Z,7.22
2023-05-13T23:36:30.984Z,7.60
2023-05-13T23:38:58.583Z,7.72
2023-05-13T23:41:26.240Z,7.80
2023-05-13T23:43:54.745Z,7.82
2023-05-13T23:46:22.487Z,7.50
2023-05-13T23:48:51.349Z,7.75
2023-05-13T23:51:20.739Z,8.00
2023-05-13T23:53:53.490Z,8.48
2023-05-13T23:56:21.342Z,8.20
2023-05-13T23:58:48.945Z,8.25
